createdAt,value
2022-11-10T00:01:09.574Z,8.90
2022-11-10T00:03:37.920Z,8.80
2022-11-10T00:06:05.935Z,8.80
2022-11-10T00:08:32.660Z,8.90
2022-11-10T00:11:01.401Z,9.00
2022-11-10T00:13:35.304Z,9.10
2022-11-10T00:16:22.713Z,9.20
2022-11-10T00:18:49.421Z,9.30
2022-11-10T00:21:18.005Z,9.30
2022-11-10T00:23:47.461Z,9.30
2022-11-10T00:26:16.748Z,9.30
2022-11-10T00:28:44.920Z,9.20
2022-11-10T00:31:12.406Z,9.10
2022-11-10T00:33:44.114Z,9.00
2022-11-10T00:36:11.393Z,8.90
2022-11-10T00:38:38.156Z,8.90
2022-11-10T00:41:05.428Z,8.90
2022-11-10T00:43:32.513Z,8.80
2022-11-10T00:45:59.652Z,8.80
2022-11-10T00:48:26.430Z,8.70
2022-11-10T00:50:53.168Z,8.70
2022-11-10T00:53:20.133Z,8.70
2022-11-10T00:55:47.141Z,8.70
2022-11-10T00:58:13.809Z,8.80
2022-11-10T01:00:40.756Z,8.90
2022-11-10T01:03:07.737Z,8.90
2022-11-10T01:05:38.960Z,9.00
2022-11-10T01:08:05.827Z,9.10
2022-11-10T01:10:32.846Z,9.10
2022-11-10T01:12:59.749Z,9.10
2022-11-10T01:15:28.042Z,9.00
2022-11-10T01:17:56.100Z,8.90
2022-11-10T01:20:23.965Z,8.90
2022-11-10T01:22:50.787Z,8.80
2022-11-10T01:25:17.586Z,8.80
2022-11-10T01:27:44.371Z,8.90
2022-11-10T01:30:11.532Z,8.90
2022-11-10T01:32:38.270Z,8.90
2022-11-10T01:35:05.835Z,8.90
2022-11-10T01:37:32.564Z,8.90
2022-11-10T01:39:59.480Z,9.00
2022-11-10T01:42:28.694Z,9.00
2022-11-10T01:45:34.474Z,9.00
2022-11-10T01:48:05.630Z,9.00
2022-11-10T01:50:37.491Z,9.00
2022-11-10T01:53:07.653Z,9.00
2022-11-10T01:55:36.724Z,8.90
2022-11-10T01:58:04.428Z,8.90
2022-11-10T02:00:31.177Z,8.90
2022-11-10T02:03:25.629Z,8.90
2022-11-10T02:05:52.598Z,8.90
2022-11-10T02:08:19.547Z,8.90
2022-11-10T02:10:46.235Z,8.90
2022-11-10T02:13:13.024Z,8.90
2022-11-10T02:15:40.156Z,8.90
2022-11-10T02:18:06.910Z,8.80
2022-11-10T02:20:34.299Z,8.80
2022-11-10T02:23:15.504Z,8.70
2022-11-10T02:25:42.326Z,8.70
2022-11-10T02:28:09.040Z,8.70
2022-11-10T02:30:35.991Z,8.70
2022-11-10T02:33:03.720Z,8.60
2022-11-10T02:35:31.710Z,8.60
2022-11-10T02:37:58.404Z,8.60
2022-11-10T02:40:25.154Z,8.50
2022-11-10T02:42:52.059Z,8.50
2022-11-10T02:45:18.848Z,8.50
2022-11-10T02:47:45.577Z,8.50
2022-11-10T02:50:12.227Z,8.40
2022-11-10T02:52:38.891Z,8.40
2022-11-10T02:55:06.122Z,8.40
2022-11-10T02:57:32.961Z,8.40
2022-11-10T02:59:59.666Z,8.40
2022-11-10T03:02:29.807Z,8.30
2022-11-10T03:04:58.880Z,8.30
2022-11-10T03:07:25.668Z,8.30
2022-11-10T03:09:52.422Z,8.30
2022-11-10T03:12:19.181Z,8.30
2022-11-10T03:14:46.141Z,8.20
2022-11-10T03:17:12.816Z,8.20
2022-11-10T03:19:39.474Z,8.20
2022-11-10T03:22:06.183Z,8.20
2022-11-10T03:24:32.833Z,8.20
2022-11-10T03:26:59.556Z,8.20
2022-11-10T03:29:26.487Z,8.20
2022-11-10T03:31:53.537Z,8.20
2022-11-10T03:34:20.200Z,8.20
2022-11-10T03:36:46.853Z,8.20
2022-11-10T03:39:13.537Z,8.20
2022-11-10T03:41:40.171Z,8.20
2022-11-10T03:44:06.934Z,8.20
2022-11-10T03:46:33.639Z,8.20
2022-11-10T03:49:00.303Z,8.30
2022-11-10T03:51:26.959Z,8.30
2022-11-10T03:53:53.622Z,8.30
2022-11-10T03:56:20.304Z,8.30
2022-11-10T03:58:47.043Z,8.30
2022-11-10T04:01:13.769Z,8.40
2022-11-10T04:03:40.515Z,8.40
2022-11-10T04:06:26.751Z,8.40
2022-11-10T04:08:59.420Z,8.50
2022-11-10T04:11:46.163Z,8.50
2022-11-10T04:14:31.933Z,8.50
2022-11-10T04:16:58.725Z,8.50
2022-11-10T04:19:26.196Z,8.50
2022-11-10T04:21:53.138Z,8.50
2022-11-10T04:24:20.184Z,8.50
2022-11-10T04:26:48.527Z,8.50
2022-11-10T04:29:19.979Z,8.50
2022-11-10T04:31:47.025Z,8.50
2022-11-10T04:34:15.089Z,8.50
2022-11-10T04:36:43.948Z,8.50
2022-11-10T04:39:11.121Z,8.50
2022-11-10T04:41:38.402Z,8.50
2022-11-10T04:44:05.807Z,8.50
2022-11-10T04:46:35.349Z,8.50
2022-11-10T04:49:03.657Z,8.50
2022-11-10T04:51:39.997Z,8.50
2022-11-10T04:54:07.995Z,8.50
2022-11-10T04:56:34.943Z,8.50
2022-11-10T04:59:01.857Z,8.50
2022-11-10T05:01:28.833Z,8.50
2022-11-10T05:03:56.469Z,8.50
2022-11-10T05:06:24.235Z,8.50
2022-11-10T05:08:51.377Z,8.50
2022-11-10T05:11:18.769Z,8.50
2022-11-10T05:13:46.230Z,8.50
2022-11-10T05:16:13.395Z,8.50
2022-11-10T05:18:40.820Z,8.50
2022-11-10T05:21:07.680Z,8.50
2022-11-10T05:23:40.515Z,8.50
2022-11-10T05:26:15.389Z,8.50
2022-11-10T05:28:44.184Z,8.50
2022-11-10T05:31:12.181Z,8.50
2022-11-10T05:33:39.406Z,8.40
2022-11-10T05:36:07.433Z,8.50
2022-11-10T05:38:36.548Z,8.50
2022-11-10T05:41:05.795Z,8.50
2022-11-10T05:43:32.483Z,8.50
2022-11-10T05:45:59.328Z,8.50
2022-11-10T05:48:26.042Z,8.50
2022-11-10T05:50:52.772Z,8.50
2022-11-10T05:53:20.538Z,8.50
2022-11-10T05:55:47.424Z,8.50
2022-11-10T05:58:14.131Z,8.50
2022-11-10T06:00:40.992Z,8.50
2022-11-10T06:03:16.139Z,8.50
2022-11-10T06:05:43.240Z,8.50
2022-11-10T06:08:10.494Z,8.60
2022-11-10T06:10:38.731Z,8.60
2022-11-10T06:13:05.932Z,8.60
2022-11-10T06:15:32.907Z,8.50
2022-11-10T06:17:59.767Z,8.50
2022-11-10T06:20:28.003Z,8.60
2022-11-10T06:23:03.894Z,8.60
2022-11-10T06:25:33.212Z,8.50
2022-11-10T06:28:00.463Z,8.50
2022-11-10T06:30:28.515Z,8.50
2022-11-10T06:32:55.361Z,8.50
2022-11-10T06:35:23.509Z,8.50
2022-11-10T06:38:04.394Z,8.50
2022-11-10T06:40:31.786Z,8.50
2022-11-10T06:42:58.913Z,8.50
2022-11-10T06:45:28.534Z,8.50
2022-11-10T06:48:05.673Z,8.50
2022-11-10T06:50:32.506Z,8.60
2022-11-10T06:53:00.180Z,8.60
2022-11-10T06:55:27.571Z,8.60
2022-11-10T06:57:54.406Z,8.60
2022-11-10T07:00:22.100Z,8.60
2022-11-10T07:02:49.100Z,8.60
2022-11-10T07:05:15.930Z,8.60
2022-11-10T07:07:42.735Z,8.60
2022-11-10T07:10:09.651Z,8.60
2022-11-10T07:12:36.352Z,8.70
2022-11-10T07:15:04.305Z,8.70
2022-11-10T07:17:31.020Z,8.70
2022-11-10T07:19:57.709Z,8.70
2022-11-10T07:22:25.100Z,8.80
2022-11-10T07:24:51.853Z,8.90
2022-11-10T07:27:18.733Z,8.90
2022-11-10T07:29:45.393Z,9.00
2022-11-10T07:32:12.096Z,9.10
2022-11-10T07:34:38.774Z,9.10
2022-11-10T07:37:05.493Z,9.20
2022-11-10T07:39:32.141Z,9.20
2022-11-10T07:41:58.862Z,9.30
2022-11-10T07:44:26.217Z,9.40
2022-11-10T07:46:53.016Z,9.40
2022-11-10T07:49:19.749Z,9.50
2022-11-10T07:51:46.406Z,9.60
2022-11-10T07:54:13.115Z,9.70
2022-11-10T07:56:39.804Z,9.80
2022-11-10T07:59:06.608Z,10.00
2022-11-10T08:01:34.123Z,10.10
2022-11-10T08:04:00.906Z,10.30
2022-11-10T08:06:29.168Z,10.50
2022-11-10T08:08:56.809Z,10.70
2022-11-10T08:11:23.538Z,10.90
2022-11-10T08:13:50.348Z,11.00
2022-11-10T08:16:17.066Z,11.20
2022-11-10T08:18:43.778Z,11.30
2022-11-10T08:21:10.428Z,11.40
2022-11-10T08:23:37.180Z,11.50
2022-11-10T08:26:03.901Z,11.60
2022-11-10T08:28:30.804Z,11.60
2022-11-10T08:31:01.487Z,11.70
2022-11-10T08:33:31.031Z,11.80
2022-11-10T08:36:00.437Z,11.90
2022-11-10T08:38:27.088Z,12.00
2022-11-10T08:40:56.424Z,12.00
2022-11-10T08:43:23.593Z,12.00
2022-11-10T08:45:50.442Z,12.00
2022-11-10T08:48:19.550Z,12.00
2022-11-10T08:50:47.452Z,11.90
2022-11-10T08:53:19.599Z,12.00
2022-11-10T08:55:46.820Z,12.00
2022-11-10T08:58:16.217Z,12.00
2022-11-10T09:00:43.127Z,12.10
2022-11-10T09:03:17.345Z,12.20
2022-11-10T09:05:44.323Z,12.30
2022-11-10T09:08:11.796Z,12.40
2022-11-10T09:10:44.409Z,12.40
2022-11-10T09:13:13.008Z,12.50
2022-11-10T09:15:41.789Z,12.60
2022-11-10T09:18:09.770Z,12.70
2022-11-10T09:20:37.636Z,12.80
2022-11-10T09:23:15.984Z,12.80
2022-11-10T09:25:48.297Z,12.90
2022-11-10T09:28:16.654Z,13.00
2022-11-10T09:30:45.732Z,13.10
2022-11-10T09:33:13.034Z,13.20
2022-11-10T09:35:40.460Z,13.30
2022-11-10T09:38:07.397Z,13.30
2022-11-10T09:40:43.242Z,13.40
2022-11-10T09:43:23.545Z,13.50
2022-11-10T09:45:53.828Z,13.70
2022-11-10T09:48:30.629Z,13.80
2022-11-10T09:51:26.283Z,14.00
2022-11-10T09:54:05.755Z,14.10
2022-11-10T09:56:34.855Z,14.20
2022-11-10T09:59:20.358Z,14.30
2022-11-10T10:01:51.532Z,14.40
2022-11-10T10:04:50.501Z,14.40
2022-11-10T10:07:52.126Z,14.50
2022-11-10T10:10:26.684Z,14.60
2022-11-10T10:13:20.784Z,14.80
2022-11-10T10:15:59.060Z,14.80
2022-11-10T10:18:49.573Z,14.80
2022-11-10T10:21:27.562Z,14.90
2022-11-10T10:24:19.929Z,15.10
2022-11-10T10:26:57.948Z,15.20
2022-11-10T10:29:39.590Z,15.30
2022-11-10T10:32:12.309Z,15.40
2022-11-10T10:34:40.291Z,15.50
2022-11-10T10:37:22.954Z,15.50
2022-11-10T10:39:52.263Z,15.60
2022-11-10T10:42:31.072Z,15.50
2022-11-10T10:45:21.776Z,15.50
2022-11-10T10:47:54.161Z,15.50
2022-11-10T10:50:34.444Z,15.50
2022-11-10T10:53:24.619Z,15.60
2022-11-10T10:56:02.206Z,15.60
2022-11-10T10:58:34.698Z,15.60
2022-11-10T11:01:19.626Z,15.50
2022-11-10T11:03:48.709Z,15.50
2022-11-10T11:06:15.602Z,15.40
2022-11-10T11:09:16.520Z,15.40
2022-11-10T11:11:46.106Z,15.30
2022-11-10T11:14:18.491Z,15.20
2022-11-10T11:16:57.224Z,15.20
2022-11-10T11:19:27.258Z,15.20
2022-11-10T11:21:59.951Z,15.20
2022-11-10T11:24:29.636Z,15.40
2022-11-10T11:27:18.366Z,15.50
2022-11-10T11:30:21.417Z,15.50
2022-11-10T11:33:26.152Z,15.60
2022-11-10T11:36:07.152Z,15.60
2022-11-10T11:38:42.851Z,15.70
2022-11-10T11:41:34.193Z,15.70
2022-11-10T11:44:09.851Z,15.80
2022-11-10T11:46:55.519Z,15.70
2022-11-10T11:49:52.014Z,15.70
2022-11-10T11:52:37.681Z,15.70
2022-11-10T11:55:28.439Z,15.80
2022-11-10T11:58:24.931Z,15.70
2022-11-10T12:01:26.204Z,15.70
2022-11-10T12:04:19.193Z,15.80
2022-11-10T12:07:20.919Z,15.90
2022-11-10T12:09:57.617Z,15.90
2022-11-10T12:12:43.162Z,16.00
2022-11-10T12:15:36.531Z,16.00
2022-11-10T12:18:27.525Z,16.10
2022-11-10T12:21:01.291Z,16.20
2022-11-10T12:23:50.021Z,16.20
2022-11-10T12:26:38.959Z,16.30
2022-11-10T12:29:26.909Z,16.30
2022-11-10T12:32:01.709Z,16.20
2022-11-10T12:34:45.335Z,16.10
2022-11-10T12:37:29.072Z,16.10
2022-11-10T12:40:12.960Z,16.00
2022-11-10T12:42:41.856Z,16.00
2022-11-10T12:45:20.391Z,16.10
2022-11-10T12:47:48.653Z,16.10
2022-11-10T12:50:34.225Z,16.20
2022-11-10T12:53:14.749Z,16.20
2022-11-10T12:56:16.321Z,16.20
2022-11-10T12:58:43.140Z,16.20
2022-11-10T13:01:19.688Z,16.20
2022-11-10T13:03:56.714Z,16.20
2022-11-10T13:06:50.744Z,16.10
2022-11-10T13:09:25.768Z,16.00
2022-11-10T13:12:10.574Z,15.80
2022-11-10T13:14:38.632Z,15.70
2022-11-10T13:17:05.914Z,15.60
2022-11-10T13:19:33.459Z,15.60
2022-11-10T13:22:00.586Z,15.60
2022-11-10T13:24:36.047Z,15.70
2022-11-10T13:27:31.276Z,15.80
2022-11-10T13:29:58.999Z,15.90
2022-11-10T13:32:33.372Z,15.90
2022-11-10T13:35:28.040Z,16.00
2022-11-10T13:37:55.404Z,16.00
2022-11-10T13:40:25.115Z,16.00
2022-11-10T13:42:57.844Z,16.00
2022-11-10T13:45:41.168Z,15.90
2022-11-10T13:48:29.350Z,15.90
2022-11-10T13:51:13.259Z,15.90
2022-11-10T13:54:10.936Z,16.00
2022-11-10T13:56:59.667Z,16.10
2022-11-10T13:59:30.687Z,16.20
2022-11-10T14:02:31.392Z,16.30
2022-11-10T14:04:58.063Z,16.20
2022-11-10T14:07:27.770Z,16.10
2022-11-10T14:09:55.993Z,16.10
2022-11-10T14:12:39.698Z,16.00
2022-11-10T14:15:39.155Z,16.00
2022-11-10T14:18:18.663Z,15.90
2022-11-10T14:20:47.005Z,15.80
2022-11-10T14:23:23.018Z,15.80
2022-11-10T14:25:58.918Z,15.70
2022-11-10T14:28:34.815Z,15.60
2022-11-10T14:31:01.507Z,15.60
2022-11-10T14:33:28.705Z,15.60
2022-11-10T14:36:04.579Z,15.50
2022-11-10T14:38:34.056Z,15.50
2022-11-10T14:41:04.199Z,15.50
2022-11-10T14:43:38.571Z,15.50
2022-11-10T14:46:07.194Z,15.50
2022-11-10T14:48:36.792Z,15.40
2022-11-10T14:51:13.657Z,15.40
2022-11-10T14:53:47.138Z,15.30
2022-11-10T14:56:17.865Z,15.20
2022-11-10T14:58:45.968Z,15.00
2022-11-10T15:01:27.690Z,14.80
2022-11-10T15:03:55.375Z,14.60
2022-11-10T15:06:22.468Z,14.40
2022-11-10T15:08:49.209Z,14.30
2022-11-10T15:11:47.567Z,14.10
2022-11-10T15:14:40.709Z,14.00
2022-11-10T15:17:12.267Z,13.70
2022-11-10T15:19:53.689Z,13.60
2022-11-10T15:22:29.549Z,13.50
2022-11-10T15:24:59.532Z,13.40
2022-11-10T15:27:29.887Z,13.20
2022-11-10T15:29:59.032Z,13.20
2022-11-10T15:32:40.606Z,13.10
2022-11-10T15:35:22.520Z,13.00
2022-11-10T15:38:21.401Z,13.00
2022-11-10T15:40:53.606Z,13.00
2022-11-10T15:43:22.224Z,13.10
2022-11-10T15:45:55.889Z,13.10
2022-11-10T15:48:23.520Z,13.20
2022-11-10T15:50:53.525Z,13.10
2022-11-10T15:53:30.838Z,13.20
2022-11-10T15:55:57.579Z,13.20
2022-11-10T15:58:24.831Z,13.20
2022-11-10T16:00:51.779Z,13.20
2022-11-10T16:03:20.258Z,13.20
2022-11-10T16:05:48.439Z,13.10
2022-11-10T16:08:20.665Z,13.10
2022-11-10T16:10:53.626Z,13.10
2022-11-10T16:13:26.986Z,13.10
2022-11-10T16:15:54.576Z,13.10
2022-11-10T16:18:27.733Z,13.00
2022-11-10T16:20:55.004Z,13.00
2022-11-10T16:23:21.829Z,12.90
2022-11-10T16:25:51.951Z,12.80
2022-11-10T16:28:24.012Z,12.70
2022-11-10T16:30:52.467Z,12.70
2022-11-10T16:33:21.292Z,12.60
2022-11-10T16:35:53.202Z,12.60
2022-11-10T16:38:24.178Z,12.60
2022-11-10T16:40:54.685Z,12.50
2022-11-10T16:43:21.868Z,12.50
2022-11-10T16:45:50.435Z,12.40
2022-11-10T16:48:21.759Z,12.40
2022-11-10T16:50:51.589Z,12.30
2022-11-10T16:53:22.166Z,12.30
2022-11-10T16:55:48.896Z,12.40
2022-11-10T16:58:15.587Z,12.40
2022-11-10T17:00:42.569Z,12.50
2022-11-10T17:03:30.795Z,12.40
2022-11-10T17:05:57.547Z,12.40
2022-11-10T17:08:27.828Z,12.40
2022-11-10T17:10:56.842Z,12.40
2022-11-10T17:13:24.231Z,12.40
2022-11-10T17:15:53.735Z,12.40
2022-11-10T17:18:24.265Z,12.40
2022-11-10T17:20:52.686Z,12.40
2022-11-10T17:23:23.240Z,12.30
2022-11-10T17:25:51.335Z,12.30
2022-11-10T17:28:18.771Z,12.20
2022-11-10T17:30:46.116Z,12.00
2022-11-10T17:33:13.095Z,11.90
2022-11-10T17:35:44.908Z,11.70
2022-11-10T17:38:24.281Z,11.60
2022-11-10T17:40:51.972Z,11.50
2022-11-10T17:43:18.650Z,11.50
2022-11-10T17:45:45.360Z,11.50
2022-11-10T17:48:12.404Z,11.40
2022-11-10T17:50:40.859Z,11.40
2022-11-10T17:53:26.180Z,11.30
2022-11-10T17:55:53.528Z,11.20
2022-11-10T17:58:20.508Z,11.10
2022-11-10T18:00:47.651Z,11.00
2022-11-10T18:03:19.975Z,10.90
2022-11-10T18:05:47.505Z,10.80
2022-11-10T18:08:15.487Z,10.70
2022-11-10T18:10:50.419Z,10.60
2022-11-10T18:13:18.421Z,10.60
2022-11-10T18:15:46.868Z,10.50
2022-11-10T18:18:17.861Z,10.50
2022-11-10T18:20:45.589Z,10.40
2022-11-10T18:23:12.815Z,10.40
2022-11-10T18:25:40.706Z,10.30
2022-11-10T18:28:08.592Z,10.30
2022-11-10T18:30:37.337Z,10.20
2022-11-10T18:33:05.425Z,10.20
2022-11-10T18:35:34.071Z,10.10
2022-11-10T18:38:01.091Z,10.10
2022-11-10T18:40:27.763Z,10.10
2022-11-10T18:43:02.981Z,10.00
2022-11-10T18:45:32.821Z,10.00
2022-11-10T18:48:03.750Z,9.90
2022-11-10T18:50:31.211Z,9.90
2022-11-10T18:52:58.303Z,9.80
2022-11-10T18:55:25.209Z,9.70
2022-11-10T18:57:52.837Z,9.60
2022-11-10T19:00:19.773Z,9.50
2022-11-10T19:02:46.701Z,9.50
2022-11-10T19:05:13.457Z,9.40
2022-11-10T19:07:40.155Z,9.40
2022-11-10T19:10:08.339Z,9.40
2022-11-10T19:12:35.045Z,9.40
2022-11-10T19:15:01.920Z,9.40
2022-11-10T19:17:28.586Z,9.30
2022-11-10T19:19:56.773Z,9.30
2022-11-10T19:22:23.832Z,9.30
2022-11-10T19:27:37.408Z,9.30
2022-11-10T19:30:04.698Z,9.30
2022-11-10T19:32:31.385Z,9.30
2022-11-10T19:34:58.516Z,9.20
2022-11-10T19:37:25.218Z,9.20
2022-11-10T19:39:52.001Z,9.20
2022-11-10T19:42:19.234Z,9.20
2022-11-10T19:44:45.924Z,9.30
2022-11-10T19:47:12.566Z,9.40
2022-11-10T19:49:39.325Z,9.50
2022-11-10T19:52:06.190Z,9.60
2022-11-10T19:54:32.978Z,9.70
2022-11-10T19:57:01.042Z,9.80
2022-11-10T19:59:27.927Z,9.80
2022-11-10T20:01:56.362Z,10.00
2022-11-10T20:04:23.055Z,10.10
2022-11-10T20:07:09.903Z,10.30
2022-11-10T20:09:36.583Z,10.30
2022-11-10T20:12:04.373Z,10.40
2022-11-10T20:14:31.112Z,10.40
2022-11-10T20:17:01.825Z,10.40
2022-11-10T20:19:28.888Z,10.40
2022-11-10T20:21:55.618Z,10.40
2022-11-10T20:24:27.875Z,10.40
2022-11-10T20:26:55.680Z,10.40
2022-11-10T20:29:22.409Z,10.40
2022-11-10T20:31:49.119Z,10.50
2022-11-10T20:34:15.793Z,10.40
2022-11-10T20:36:42.472Z,10.40
2022-11-10T20:39:09.212Z,10.30
2022-11-10T20:41:37.684Z,10.30
2022-11-10T20:44:04.508Z,10.30
2022-11-10T20:46:53.639Z,10.30
2022-11-10T20:49:18.190Z,10.30
2022-11-10T20:51:44.861Z,10.30
2022-11-10T20:54:16.139Z,10.40
2022-11-10T20:57:32.599Z,10.40
2022-11-10T21:00:00.532Z,10.40
2022-11-10T21:02:27.399Z,10.40
2022-11-10T21:04:54.106Z,10.40
2022-11-10T21:07:20.876Z,10.40
2022-11-10T21:09:47.548Z,10.40
2022-11-10T21:12:33.128Z,10.40
2022-11-10T21:14:59.778Z,10.40
2022-11-10T21:17:26.620Z,10.40
2022-11-10T21:19:55.057Z,10.40
2022-11-10T21:22:22.005Z,10.40
2022-11-10T21:24:48.740Z,10.40
2022-11-10T21:27:15.416Z,10.50
2022-11-10T21:29:42.426Z,10.60
2022-11-10T21:32:09.158Z,10.60
2022-11-10T21:34:36.092Z,10.70
2022-11-10T21:37:02.929Z,10.70
2022-11-10T21:39:30.877Z,10.60
2022-11-10T21:41:57.536Z,10.60
2022-11-10T21:44:24.863Z,10.60
2022-11-10T21:46:51.837Z,10.50
2022-11-10T21:49:18.606Z,10.50
2022-11-10T21:51:45.325Z,10.60
2022-11-10T21:54:12.570Z,10.60
2022-11-10T21:56:39.467Z,10.70
2022-11-10T21:59:06.271Z,10.80
2022-11-10T22:01:32.994Z,10.90
2022-11-10T22:03:59.864Z,10.90
2022-11-10T22:06:46.552Z,11.00
2022-11-10T22:09:13.303Z,11.10
2022-11-10T22:11:58.518Z,11.20
2022-11-10T22:14:44.080Z,11.20
2022-11-10T22:17:34.362Z,11.30
2022-11-10T22:20:06.335Z,11.30
2022-11-10T22:22:32.986Z,11.30
2022-11-10T22:24:59.744Z,11.30
2022-11-10T22:27:26.467Z,11.20
2022-11-10T22:29:53.105Z,11.20
2022-11-10T22:32:19.887Z,11.10
2022-11-10T22:34:46.725Z,11.00
2022-11-10T22:37:13.379Z,11.00
2022-11-10T22:40:00.326Z,10.90
2022-11-10T22:42:45.728Z,10.80
2022-11-10T22:45:12.441Z,10.80
2022-11-10T22:48:02.049Z,10.70
2022-11-10T22:50:28.800Z,10.70
2022-11-10T22:52:56.711Z,10.70
2022-11-10T22:55:23.400Z,10.70
2022-11-10T22:57:52.825Z,10.70
2022-11-10T23:00:19.795Z,10.70
2022-11-10T23:02:46.505Z,10.70
2022-11-10T23:05:13.300Z,10.70
2022-11-10T23:07:40.280Z,10.70
2022-11-10T23:10:07.524Z,10.70
2022-11-10T23:12:34.188Z,10.60
2022-11-10T23:15:00.891Z,10.60
2022-11-10T23:17:27.538Z,10.50
2022-11-10T23:19:54.415Z,10.50
2022-11-10T23:22:21.128Z,10.60
2022-11-10T23:24:49.100Z,10.60
2022-11-10T23:27:18.386Z,10.50
2022-11-10T23:29:45.084Z,10.50
2022-11-10T23:32:11.887Z,10.40
2022-11-10T23:34:38.595Z,10.30
2022-11-10T23:37:05.295Z,10.20
2022-11-10T23:39:31.947Z,10.10
2022-11-10T23:41:58.653Z,10.00
2022-11-10T23:44:25.329Z,10.00
2022-11-10T23:46:51.996Z,9.90
2022-11-10T23:49:18.696Z,9.90
2022-11-10T23:51:45.408Z,9.90
2022-11-10T23:54:12.070Z,10.00
2022-11-10T23:56:38.710Z,10.10
2022-11-10T23:59:05.419Z,10.10
